createdAt,value
2023-02-08T00:00:46.046Z,102076.94
2023-02-08T00:03:13.850Z,102074.13
2023-02-08T00:05:41.384Z,102075.56
2023-02-08T00:08:09.425Z,102074.66
2023-02-08T00:10:37.167Z,102064.03
2023-02-08T00:13:04.784Z,102067.28
2023-02-08T00:15:32.704Z,102069.81
2023-02-08T00:18:01.764Z,102063.28
2023-02-08T00:20:29.343Z,102069.06
2023-02-08T00:22:57.610Z,102067.28
2023-02-08T00:25:25.149Z,102064.75
2023-02-08T00:27:52.849Z,102066.94
2023-02-08T00:30:20.468Z,102062.47
2023-02-08T00:32:48.862Z,102060.50
2023-02-08T00:35:17.965Z,102057.97
2023-02-08T00:37:45.596Z,102064.88
2023-02-08T00:40:13.337Z,102062.00
2023-02-08T00:42:40.897Z,102069.75
2023-02-08T00:45:10.206Z,102067.03
2023-02-08T00:47:37.805Z,102061.84
2023-02-08T00:50:06.339Z,102061.69
2023-02-08T00:52:35.288Z,102060.94
2023-02-08T00:55:02.948Z,102061.34
2023-02-08T00:57:30.718Z,102066.38
2023-02-08T00:59:58.210Z,102071.09
2023-02-08T01:02:25.936Z,102069.28
2023-02-08T01:04:53.530Z,102074.00
2023-02-08T01:07:21.143Z,102066.47
2023-02-08T01:09:50.090Z,102055.72
2023-02-08T01:12:17.766Z,102064.53
2023-02-08T01:14:45.544Z,102054.38
2023-02-08T01:17:13.113Z,102055.63
2023-02-08T01:19:42.503Z,102059.03
2023-02-08T01:22:10.284Z,102061.75
2023-02-08T01:24:37.855Z,102057.41
2023-02-08T01:27:06.758Z,102058.16
2023-02-08T01:29:34.556Z,102052.22
2023-02-08T01:32:02.083Z,102052.94
2023-02-08T01:34:30.505Z,102057.09
2023-02-08T01:36:58.058Z,102061.03
2023-02-08T01:39:25.668Z,102049.03
2023-02-08T01:41:53.251Z,102047.94
2023-02-08T01:44:58.520Z,102043.81
2023-02-08T01:47:27.673Z,102048.13
2023-02-08T01:49:55.369Z,102039.69
2023-02-08T01:52:26.314Z,102034.28
2023-02-08T01:54:58.309Z,102036.06
2023-02-08T01:57:26.406Z,102037.53
2023-02-08T01:59:57.979Z,102035.19
2023-02-08T02:02:27.451Z,102025.31
2023-02-08T02:04:56.555Z,102028.94
2023-02-08T02:07:29.071Z,102030.56
2023-02-08T02:10:00.991Z,102036.19
2023-02-08T02:12:30.867Z,102019.25
2023-02-08T02:14:59.275Z,102021.06
2023-02-08T02:17:28.292Z,102023.22
2023-02-08T02:20:04.250Z,102022.16
2023-02-08T02:22:59.805Z,102021.59
2023-02-08T02:25:59.660Z,102013.16
2023-02-08T02:29:18.035Z,102023.44
2023-02-08T02:32:12.353Z,102017.34
2023-02-08T02:34:50.514Z,102016.97
2023-02-08T02:37:31.048Z,102015.72
2023-02-08T02:40:08.795Z,102008.91
2023-02-08T02:43:05.853Z,102013.06
2023-02-08T02:45:37.907Z,102004.97
2023-02-08T02:48:13.798Z,102011.13
2023-02-08T02:50:46.108Z,102016.16
2023-02-08T02:53:19.545Z,102013.31
2023-02-08T02:55:53.010Z,102016.16
2023-02-08T02:58:23.287Z,102016.53
2023-02-08T03:00:55.502Z,102014.56
2023-02-08T03:03:27.224Z,102010.44
2023-02-08T03:05:59.642Z,102005.75
2023-02-08T03:08:44.451Z,102007.38
2023-02-08T03:11:21.978Z,102008.13
2023-02-08T03:14:02.665Z,102009.59
2023-02-08T03:16:37.473Z,102018.41
2023-02-08T03:19:12.119Z,102007.28
2023-02-08T03:21:44.349Z,102009.44
2023-02-08T03:24:23.858Z,102005.84
2023-02-08T03:26:58.966Z,102002.28
2023-02-08T03:29:37.399Z,102011.97
2023-02-08T03:32:10.116Z,102008.41
2023-02-08T03:34:46.818Z,102007.72
2023-02-08T03:37:19.538Z,102008.06
2023-02-08T03:39:49.549Z,102011.31
2023-02-08T03:42:22.681Z,102007.75
2023-02-08T03:44:53.122Z,102023.91
2023-02-08T03:47:24.294Z,102011.34
2023-02-08T03:49:56.459Z,102026.06
2023-02-08T03:52:25.811Z,102021.03
2023-02-08T03:54:58.330Z,102019.63
2023-02-08T03:57:29.452Z,102028.22
2023-02-08T04:00:01.430Z,102019.25
2023-02-08T04:02:34.016Z,102021.75
2023-02-08T04:05:03.614Z,102017.63
2023-02-08T04:07:31.122Z,102026.78
2023-02-08T04:09:58.712Z,102021.41
2023-02-08T04:12:26.261Z,102017.63
2023-02-08T04:14:53.821Z,102018.53
2023-02-08T04:17:21.359Z,102017.09
2023-02-08T04:19:48.950Z,102015.13
2023-02-08T04:22:17.826Z,102013.50
2023-02-08T04:24:45.363Z,102019.59
2023-02-08T04:27:12.976Z,102017.28
2023-02-08T04:29:41.211Z,102024.13
2023-02-08T04:32:11.566Z,102015.84
2023-02-08T04:34:39.247Z,102022.31
2023-02-08T04:37:07.235Z,102024.13
2023-02-08T04:39:36.284Z,102015.13
2023-02-08T04:42:03.919Z,102012.25
2023-02-08T04:44:32.707Z,102017.81
2023-02-08T04:47:00.456Z,102006.34
2023-02-08T04:49:28.019Z,102003.44
2023-02-08T04:51:55.623Z,102004.72
2023-02-08T04:54:23.182Z,101998.78
2023-02-08T04:56:52.098Z,102000.75
2023-02-08T04:59:19.794Z,101991.28
2023-02-08T05:01:47.502Z,101994.69
2023-02-08T05:04:15.132Z,101985.72
2023-02-08T05:06:42.667Z,101990.56
2023-02-08T05:09:10.996Z,101977.97
2023-02-08T05:11:38.595Z,101986.78
2023-02-08T05:14:07.454Z,101984.09
2023-02-08T05:16:34.948Z,101984.66
2023-02-08T05:19:02.485Z,101979.81
2023-02-08T05:21:30.218Z,101984.47
2023-02-08T05:23:57.853Z,101985.19
2023-02-08T05:26:25.469Z,101970.47
2023-02-08T05:28:53.050Z,101980.00
2023-02-08T05:31:24.406Z,101979.81
2023-02-08T05:33:52.581Z,101979.44
2023-02-08T05:36:21.187Z,101972.63
2023-02-08T05:38:48.755Z,101977.66
2023-02-08T05:41:16.988Z,101977.47
2023-02-08T05:43:44.523Z,101979.63
2023-02-08T05:46:12.367Z,101982.31
2023-02-08T05:48:41.454Z,101979.63
2023-02-08T05:51:09.206Z,101986.44
2023-02-08T05:53:37.703Z,101987.88
2023-02-08T05:56:05.637Z,101983.75
2023-02-08T05:58:34.234Z,101986.63
2023-02-08T06:01:02.365Z,101987.00
2023-02-08T06:03:30.042Z,101986.25
2023-02-08T06:06:01.077Z,101981.97
2023-02-08T06:08:28.901Z,101993.97
2023-02-08T06:10:56.570Z,101998.81
2023-02-08T06:13:24.198Z,101994.88
2023-02-08T06:15:51.748Z,101997.00
2023-02-08T06:18:19.313Z,102004.22
2023-02-08T06:20:46.890Z,102011.53
2023-02-08T06:23:15.746Z,102011.03
2023-02-08T06:25:43.275Z,102009.41
2023-02-08T06:28:11.081Z,102012.34
2023-02-08T06:30:39.169Z,102019.16
2023-02-08T06:33:07.090Z,102013.66
2023-02-08T06:35:34.630Z,102008.47
2023-02-08T06:38:02.328Z,102006.53
2023-02-08T06:40:31.253Z,102011.75
2023-02-08T06:42:58.765Z,102015.69
2023-02-08T06:45:26.331Z,102009.97
2023-02-08T06:47:53.842Z,102007.44
2023-02-08T06:50:24.001Z,102018.19
2023-02-08T06:52:51.679Z,102019.28
2023-02-08T06:55:19.680Z,102020.00
2023-02-08T06:57:48.581Z,102027.38
2023-02-08T07:00:16.640Z,102020.72
2023-02-08T07:02:44.204Z,102022.88
2023-02-08T07:05:11.793Z,102029.00
2023-02-08T07:07:39.390Z,102027.00
2023-02-08T07:10:07.768Z,102029.69
2023-02-08T07:12:36.054Z,102018.56
2023-02-08T07:15:05.249Z,102028.63
2023-02-08T07:17:32.796Z,102031.88
2023-02-08T07:20:00.364Z,102032.41
2023-02-08T07:22:27.920Z,102033.09
2023-02-08T07:24:55.460Z,102032.56
2023-02-08T07:27:25.042Z,102035.97
2023-02-08T07:29:53.597Z,102034.00
2023-02-08T07:32:22.546Z,102023.59
2023-02-08T07:34:50.110Z,102027.69
2023-02-08T07:37:17.738Z,102036.13
2023-02-08T07:39:45.238Z,102030.38
2023-02-08T07:42:12.804Z,102032.91
2023-02-08T07:44:53.202Z,102022.84
2023-02-08T07:47:22.164Z,102020.31
2023-02-08T07:49:49.759Z,102019.22
2023-02-08T07:52:17.387Z,102010.97
2023-02-08T07:54:44.944Z,102016.19
2023-02-08T07:57:12.482Z,102018.06
2023-02-08T07:59:40.093Z,102009.19
2023-02-08T08:02:07.705Z,102009.94
2023-02-08T08:04:36.678Z,102010.63
2023-02-08T08:07:04.259Z,102009.94
2023-02-08T08:09:31.952Z,102005.28
2023-02-08T08:11:59.449Z,102013.72
2023-02-08T08:14:26.974Z,102011.75
2023-02-08T08:16:54.529Z,102007.06
2023-02-08T08:19:22.139Z,102008.06
2023-02-08T08:21:51.037Z,102014.47
2023-02-08T08:24:18.687Z,102000.72
2023-02-08T08:26:46.202Z,102006.66
2023-02-08T08:29:14.236Z,102005.47
2023-02-08T08:31:43.854Z,101998.34
2023-02-08T08:34:11.485Z,102002.38
2023-02-08T08:36:39.026Z,102005.22
2023-02-08T08:39:08.039Z,101999.47
2023-02-08T08:41:36.932Z,101990.28
2023-02-08T08:44:04.695Z,102002.63
2023-02-08T08:46:32.272Z,101996.66
2023-02-08T08:48:59.968Z,102002.97
2023-02-08T08:51:27.627Z,101992.34
2023-02-08T08:53:55.285Z,101995.84
2023-02-08T08:56:24.174Z,101996.03
2023-02-08T08:58:51.685Z,101996.72
2023-02-08T09:01:19.651Z,102003.06
2023-02-08T09:03:47.487Z,102001.91
2023-02-08T09:06:15.147Z,102005.38
2023-02-08T09:08:43.013Z,102005.19
2023-02-08T09:11:13.872Z,102003.25
2023-02-08T09:13:43.491Z,102006.25
2023-02-08T09:16:14.309Z,102003.00
2023-02-08T09:18:42.448Z,102000.63
2023-02-08T09:21:11.481Z,101993.91
2023-02-08T09:23:39.416Z,102000.31
2023-02-08T09:26:08.574Z,101989.56
2023-02-08T09:28:36.211Z,102001.81
2023-02-08T09:31:10.696Z,101996.88
2023-02-08T09:33:38.464Z,101997.25
2023-02-08T09:36:06.673Z,101985.00
2023-02-08T09:38:34.864Z,101986.44
2023-02-08T09:41:17.061Z,101982.81
2023-02-08T09:43:53.973Z,101981.88
2023-02-08T09:46:25.260Z,101975.66
2023-02-08T09:48:56.291Z,101969.56
2023-02-08T09:51:33.409Z,101973.69
2023-02-08T09:54:06.872Z,101974.25
2023-02-08T09:56:40.151Z,101978.69
2023-02-08T09:59:14.432Z,101979.34
2023-02-08T10:01:43.944Z,101978.56
2023-02-08T10:04:19.405Z,101972.09
2023-02-08T10:06:49.883Z,101975.13
2023-02-08T10:09:21.860Z,101975.81
2023-02-08T10:12:00.111Z,101972.50
2023-02-08T10:14:48.274Z,101974.41
2023-02-08T10:17:37.223Z,101966.03
2023-02-08T10:20:14.247Z,101963.81
2023-02-08T10:22:49.452Z,101967.84
2023-02-08T10:25:31.864Z,101962.25
2023-02-08T10:28:19.607Z,101959.34
2023-02-08T10:30:57.065Z,101958.47
2023-02-08T10:33:30.769Z,101947.03
2023-02-08T10:35:58.540Z,101954.03
2023-02-08T10:38:44.113Z,101944.78
2023-02-08T10:41:19.367Z,101947.91
2023-02-08T10:43:49.783Z,101945.59
2023-02-08T10:46:25.344Z,101940.28
2023-02-08T10:49:08.055Z,101935.13
2023-02-08T10:51:35.676Z,101933.75
2023-02-08T10:54:03.536Z,101932.34
2023-02-08T10:56:46.332Z,101924.06
2023-02-08T10:59:21.339Z,101928.84
2023-02-08T11:01:50.510Z,101910.78
2023-02-08T11:04:19.727Z,101918.25
2023-02-08T11:06:48.954Z,101919.22
2023-02-08T11:09:29.076Z,101908.88
2023-02-08T11:11:58.422Z,101913.56
2023-02-08T11:14:45.324Z,101911.78
2023-02-08T11:17:28.425Z,101899.22
2023-02-08T11:19:59.437Z,101901.31
2023-02-08T11:22:31.077Z,101896.00
2023-02-08T11:25:01.288Z,101898.66
2023-02-08T11:27:34.645Z,101895.44
2023-02-08T11:30:19.538Z,101889.66
2023-02-08T11:32:48.752Z,101903.88
2023-02-08T11:35:23.945Z,101888.31
2023-02-08T11:37:53.621Z,101887.97
2023-02-08T11:40:24.045Z,101885.19
2023-02-08T11:42:52.828Z,101868.88
2023-02-08T11:45:24.006Z,101875.50
2023-02-08T11:47:52.847Z,101872.56
2023-02-08T11:50:27.148Z,101871.59
2023-02-08T11:52:59.164Z,101862.41
2023-02-08T11:55:29.255Z,101847.53
2023-02-08T11:58:01.218Z,101855.19
2023-02-08T12:00:30.908Z,101859.66
2023-02-08T12:03:01.223Z,101852.59
2023-02-08T12:05:41.379Z,101856.03
2023-02-08T12:08:17.675Z,101859.19
2023-02-08T12:11:13.221Z,101848.97
2023-02-08T12:13:59.488Z,101845.03
2023-02-08T12:16:49.470Z,101847.94
2023-02-08T12:19:53.669Z,101842.41
2023-02-08T12:22:25.264Z,101837.88
2023-02-08T12:25:04.579Z,101832.00
2023-02-08T12:27:43.226Z,101825.91
2023-02-08T12:30:22.731Z,101824.22
2023-02-08T12:33:17.276Z,101816.56
2023-02-08T12:36:04.498Z,101810.69
2023-02-08T12:39:29.006Z,101807.16
2023-02-08T12:42:13.637Z,101811.44
2023-02-08T12:44:55.654Z,101802.63
2023-02-08T12:47:38.725Z,101792.53
2023-02-08T12:50:19.753Z,101784.78
2023-02-08T12:52:51.120Z,101787.38
2023-02-08T12:55:25.673Z,101782.91
2023-02-08T12:57:56.430Z,101780.44
2023-02-08T13:00:27.578Z,101776.88
2023-02-08T13:03:04.798Z,101771.81
2023-02-08T13:05:36.314Z,101766.56
2023-02-08T13:08:09.944Z,101766.53
2023-02-08T13:10:41.370Z,101762.19
2023-02-08T13:13:17.010Z,101759.16
2023-02-08T13:15:47.848Z,101755.06
2023-02-08T13:18:20.003Z,101749.19
2023-02-08T13:20:50.623Z,101758.84
2023-02-08T13:23:24.148Z,101750.00
2023-02-08T13:25:56.839Z,101752.88
2023-02-08T13:28:26.758Z,101744.41
2023-02-08T13:30:59.289Z,101744.03
2023-02-08T13:33:34.547Z,101731.34
2023-02-08T13:36:02.587Z,101726.03
2023-02-08T13:38:33.395Z,101723.97
2023-02-08T13:41:16.073Z,101715.66
2023-02-08T13:43:48.038Z,101728.78
2023-02-08T13:46:17.823Z,101720.91
2023-02-08T13:48:51.149Z,101710.34
2023-02-08T13:52:02.213Z,101708.09
2023-02-08T13:54:30.406Z,101708.72
2023-02-08T13:56:59.405Z,101704.22
2023-02-08T13:59:37.883Z,101703.28
2023-02-08T14:02:29.899Z,101703.78
2023-02-08T14:05:36.414Z,101709.91
2023-02-08T14:08:07.232Z,101709.41
2023-02-08T14:10:40.305Z,101710.97
2023-02-08T14:13:24.689Z,101702.28
2023-02-08T14:16:25.086Z,101702.25
2023-02-08T14:18:54.247Z,101695.41
2023-02-08T14:21:31.894Z,101701.84
2023-02-08T14:24:02.658Z,101703.38
2023-02-08T14:26:31.366Z,101693.44
2023-02-08T14:29:02.419Z,101705.56
2023-02-08T14:31:38.639Z,101697.81
2023-02-08T14:34:07.405Z,101695.81
2023-02-08T14:36:36.844Z,101693.34
2023-02-08T14:39:22.576Z,101681.38
2023-02-08T14:42:15.445Z,101687.84
2023-02-08T14:44:58.102Z,101683.19
2023-02-08T14:48:02.659Z,101679.81
2023-02-08T14:50:33.377Z,101676.72
2023-02-08T14:53:08.231Z,101680.09
2023-02-08T14:55:42.816Z,101670.88
2023-02-08T14:58:15.787Z,101666.72
2023-02-08T15:00:46.790Z,101672.84
2023-02-08T15:03:17.191Z,101679.63
2023-02-08T15:05:56.376Z,101685.00
2023-02-08T15:08:23.984Z,101677.94
2023-02-08T15:10:51.584Z,101669.84
2023-02-08T15:13:24.256Z,101671.25
2023-02-08T15:15:56.527Z,101669.13
2023-02-08T15:18:28.209Z,101670.28
2023-02-08T15:21:03.069Z,101656.09
2023-02-08T15:23:31.612Z,101661.03
2023-02-08T15:26:02.494Z,101652.88
2023-02-08T15:28:32.425Z,101647.34
2023-02-08T15:31:05.032Z,101647.38
2023-02-08T15:33:33.721Z,101647.13
2023-02-08T15:36:06.160Z,101648.03
2023-02-08T15:38:37.162Z,101644.81
2023-02-08T15:41:07.515Z,101653.84
2023-02-08T15:43:36.430Z,101646.03
2023-02-08T15:46:07.465Z,101642.59
2023-02-08T15:48:39.511Z,101640.22
2023-02-08T15:51:08.179Z,101633.38
2023-02-08T15:53:36.767Z,101638.25
2023-02-08T15:56:07.288Z,101632.34
2023-02-08T15:58:40.142Z,101635.56
2023-02-08T16:01:09.929Z,101633.38
2023-02-08T16:03:38.639Z,101632.69
2023-02-08T16:06:08.258Z,101638.38
2023-02-08T16:08:41.021Z,101639.81
2023-02-08T16:11:13.424Z,101650.00
2023-02-08T16:13:46.916Z,101641.91
2023-02-08T16:16:21.156Z,101645.03
2023-02-08T16:18:50.932Z,101652.28
2023-02-08T16:21:32.716Z,101648.41
2023-02-08T16:24:02.064Z,101648.31
2023-02-08T16:26:35.065Z,101654.22
2023-02-08T16:29:05.280Z,101645.53
2023-02-08T16:31:36.223Z,101650.19
2023-02-08T16:34:06.612Z,101652.59
2023-02-08T16:36:37.800Z,101655.03
2023-02-08T16:39:39.109Z,101659.88
2023-02-08T16:42:16.340Z,101659.38
2023-02-08T16:45:19.526Z,101659.75
2023-02-08T16:47:51.420Z,101660.59
2023-02-08T16:50:21.230Z,101666.53
2023-02-08T16:52:51.461Z,101659.56
2023-02-08T16:55:22.594Z,101673.50
2023-02-08T16:57:52.452Z,101674.63
2023-02-08T17:00:24.381Z,101677.47
2023-02-08T17:02:53.985Z,101680.31
2023-02-08T17:05:23.946Z,101686.97
2023-02-08T17:07:51.945Z,101679.84
2023-02-08T17:10:28.656Z,101682.94
2023-02-08T17:13:09.792Z,101682.44
2023-02-08T17:15:41.263Z,101685.47
2023-02-08T17:18:12.649Z,101689.94
2023-02-08T17:20:41.147Z,101682.69
2023-02-08T17:23:10.669Z,101674.31
2023-02-08T17:25:38.594Z,101673.81
2023-02-08T17:28:08.664Z,101675.56
2023-02-08T17:30:38.967Z,101684.97
2023-02-08T17:33:07.516Z,101676.81
2023-02-08T17:35:38.242Z,101676.69
2023-02-08T17:38:06.980Z,101674.50
2023-02-08T17:40:37.228Z,101679.41
2023-02-08T17:43:06.079Z,101682.56
2023-02-08T17:45:38.934Z,101683.53
2023-02-08T17:48:07.997Z,101687.81
2023-02-08T17:50:42.993Z,101682.22
2023-02-08T17:53:12.502Z,101689.03
2023-02-08T17:55:42.503Z,101689.09
2023-02-08T17:58:10.334Z,101689.56
2023-02-08T18:00:38.326Z,101693.50
2023-02-08T18:03:06.016Z,101687.88
2023-02-08T18:05:33.656Z,101686.72
2023-02-08T18:08:02.516Z,101695.69
2023-02-08T18:10:30.132Z,101700.09
2023-02-08T18:12:57.760Z,101690.31
2023-02-08T18:15:25.313Z,101693.03
2023-02-08T18:17:52.861Z,101684.00
2023-02-08T18:20:20.468Z,101694.47
2023-02-08T18:22:48.131Z,101693.16
2023-02-08T18:25:17.639Z,101688.56
2023-02-08T18:27:45.251Z,101693.09
2023-02-08T18:30:14.082Z,101689.91
2023-02-08T18:32:41.642Z,101692.41
2023-02-08T18:35:09.702Z,101693.16
2023-02-08T18:37:38.380Z,101699.00
2023-02-08T18:40:09.137Z,101694.34
2023-02-08T18:42:38.028Z,101693.50
2023-02-08T18:45:06.437Z,101697.84
2023-02-08T18:47:35.904Z,101694.13
2023-02-08T18:50:03.714Z,101695.34
2023-02-08T18:52:31.864Z,101695.34
2023-02-08T18:54:59.468Z,101702.56
2023-02-08T18:57:27.097Z,101695.41
2023-02-08T18:59:56.362Z,101704.66
2023-02-08T19:02:24.265Z,101706.78
2023-02-08T19:04:51.851Z,101702.94
2023-02-08T19:07:19.498Z,101701.81
2023-02-08T19:09:47.331Z,101707.09
2023-02-08T19:12:15.865Z,101705.47
2023-02-08T19:14:44.117Z,101704.78
2023-02-08T19:17:14.869Z,101702.84
2023-02-08T19:19:42.693Z,101705.56
2023-02-08T19:22:10.303Z,101702.75
2023-02-08T19:24:37.902Z,101697.56
2023-02-08T19:27:05.811Z,101700.56
2023-02-08T19:29:34.533Z,101702.53
2023-02-08T19:32:02.173Z,101705.81
2023-02-08T19:34:31.192Z,101698.06
2023-02-08T19:36:58.758Z,101703.28
2023-02-08T19:39:27.961Z,101698.09
2023-02-08T19:41:58.480Z,101711.63
2023-02-08T19:44:29.040Z,101711.00
2023-02-08T19:46:57.849Z,101700.00
2023-02-08T19:49:27.182Z,101699.09
2023-02-08T19:51:56.676Z,101696.44
2023-02-08T19:54:24.224Z,101688.28
2023-02-08T19:56:54.446Z,101689.75
2023-02-08T19:59:24.129Z,101692.00
2023-02-08T20:01:51.811Z,101688.72
2023-02-08T20:04:19.579Z,101686.94
2023-02-08T20:06:47.664Z,101685.16
2023-02-08T20:09:17.556Z,101682.47
2023-02-08T20:11:56.921Z,101685.63
2023-02-08T20:14:25.612Z,101682.53
2023-02-08T20:16:53.348Z,101683.84
2023-02-08T20:19:21.008Z,101688.78
2023-02-08T20:21:48.601Z,101681.91
2023-02-08T20:24:17.549Z,101692.66
2023-02-08T20:26:46.619Z,101691.47
2023-02-08T20:29:15.536Z,101692.22
2023-02-08T20:31:46.519Z,101695.50
2023-02-08T20:34:16.848Z,101693.72
2023-02-08T20:37:04.503Z,101699.22
2023-02-08T20:39:36.449Z,101693.09
2023-02-08T20:42:04.488Z,101685.25
2023-02-08T20:44:32.410Z,101693.09
2023-02-08T20:47:00.612Z,101696.25
2023-02-08T20:49:29.307Z,101695.63
2023-02-08T20:51:57.332Z,101701.31
2023-02-08T20:54:25.523Z,101706.69
2023-02-08T20:56:55.029Z,101711.44
2023-02-08T20:59:22.952Z,101710.41
2023-02-08T21:01:51.131Z,101710.84
2023-02-08T21:04:20.213Z,101705.50
2023-02-08T21:06:47.930Z,101705.06
2023-02-08T21:09:18.314Z,101707.44
2023-02-08T21:11:47.113Z,101695.09
2023-02-08T21:14:18.842Z,101702.53
2023-02-08T21:16:47.725Z,101701.19
2023-02-08T21:19:15.903Z,101703.72
2023-02-08T21:21:43.919Z,101689.75
2023-02-08T21:24:11.898Z,101689.72
2023-02-08T21:26:39.716Z,101693.47
2023-02-08T21:29:07.895Z,101691.53
2023-02-08T21:31:37.510Z,101689.09
2023-02-08T21:34:10.889Z,101688.66
2023-02-08T21:36:38.493Z,101680.47
2023-02-08T21:39:06.068Z,101679.31
2023-02-08T21:41:34.567Z,101677.47
2023-02-08T21:44:04.333Z,101677.19
2023-02-08T21:46:33.513Z,101662.16
2023-02-08T21:49:19.896Z,101665.44
2023-02-08T21:52:05.854Z,101666.59
2023-02-08T21:54:52.956Z,101659.03
2023-02-08T21:57:22.437Z,101659.03
2023-02-08T21:59:52.029Z,101650.56
2023-02-08T22:02:23.280Z,101647.88
2023-02-08T22:04:53.038Z,101649.53
2023-02-08T22:07:21.152Z,101651.06
2023-02-08T22:09:48.918Z,101663.22
2023-02-08T22:12:18.839Z,101656.69
2023-02-08T22:14:46.453Z,101650.16
2023-02-08T22:17:14.812Z,101649.56
2023-02-08T22:19:43.479Z,101645.69
2023-02-08T22:22:12.915Z,101633.22
2023-02-08T22:24:40.803Z,101629.06
2023-02-08T22:27:08.799Z,101628.16
2023-02-08T22:29:36.751Z,101632.47
2023-02-08T22:32:05.453Z,101620.91
2023-02-08T22:34:33.212Z,101620.16
2023-02-08T22:37:03.567Z,101622.25
2023-02-08T22:39:34.072Z,101627.88
2023-02-08T22:42:01.767Z,101632.94
2023-02-08T22:44:29.371Z,101633.53
2023-02-08T22:46:57.434Z,101619.84
2023-02-08T22:49:25.017Z,101621.63
2023-02-08T22:51:52.590Z,101624.91
2023-02-08T22:54:20.452Z,101630.72
2023-02-08T22:56:49.328Z,101626.09
2023-02-08T22:59:17.416Z,101624.31
2023-02-08T23:01:48.512Z,101630.56
2023-02-08T23:04:16.390Z,101627.00
2023-02-08T23:06:44.115Z,101626.53
2023-02-08T23:09:13.021Z,101634.41
2023-02-08T23:11:40.952Z,101632.50
2023-02-08T23:14:10.056Z,101639.47
2023-02-08T23:16:37.838Z,101632.00
2023-02-08T23:19:06.012Z,101642.41
2023-02-08T23:21:33.959Z,101632.03
2023-02-08T23:24:01.643Z,101628.44
2023-02-08T23:26:29.296Z,101631.09
2023-02-08T23:28:57.085Z,101623.38
2023-02-08T23:31:26.341Z,101622.22
2023-02-08T23:33:54.132Z,101619.38
2023-02-08T23:36:23.832Z,101613.84
2023-02-08T23:38:51.732Z,101611.63
2023-02-08T23:41:21.639Z,101609.25
2023-02-08T23:43:51.505Z,101608.06
2023-02-08T23:46:21.550Z,101610.59
2023-02-08T23:48:51.169Z,101610.72
2023-02-08T23:51:20.637Z,101602.28
2023-02-08T23:53:49.249Z,101603.16
2023-02-08T23:56:22.209Z,101609.09
2023-02-08T23:58:52.197Z,101601.38
